sensor_id;sensor_type;location;lat;lon;timestamp;P1;durP1;ratioP1;P2;durP2;ratioP2
13067;SDS011;6600;51.362;6.686;2022-08-19T00:00:23;3.40;;;2.60;;
13067;SDS011;6600;51.362;6.686;2022-08-19T00:02:49;4.33;;;2.93;;
13067;SDS011;6600;51.362;6.686;2022-08-19T00:05:14;4.17;;;3.00;;
13067;SDS011;6600;51.362;6.686;2022-08-19T00:07:41;2.97;;;2.67;;
13067;SDS011;6600;51.362;6.686;2022-08-19T00:10:08;4.53;;;2.93;;
13067;SDS011;6600;51.362;6.686;2022-08-19T00:12:35;3.53;;;2.90;;
13067;SDS011;6600;51.362;6.686;2022-08-19T00:15:03;3.07;;;2.77;;
13067;SDS011;6600;51.362;6.686;2022-08-19T00:17:29;3.43;;;2.77;;
13067;SDS011;6600;51.362;6.686;2022-08-19T00:19:55;2.93;;;2.63;;
13067;SDS011;6600;51.362;6.686;2022-08-19T00:22:20;3.77;;;2.60;;
13067;SDS011;6600;51.362;6.686;2022-08-19T00:24:46;2.50;;;2.30;;
13067;SDS011;6600;51.362;6.686;2022-08-19T00:27:12;3.67;;;2.40;;
13067;SDS011;6600;51.362;6.686;2022-08-19T00:29:38;3.87;;;2.50;;
13067;SDS011;6600;51.362;6.686;2022-08-19T00:32:03;4.20;;;2.40;;
13067;SDS011;6600;51.362;6.686;2022-08-19T00:34:29;2.50;;;2.30;;
13067;SDS011;6600;51.362;6.686;2022-08-19T00:36:55;2.70;;;2.50;;
13067;SDS011;6600;51.362;6.686;2022-08-19T00:39:21;3.13;;;2.83;;
13067;SDS011;6600;51.362;6.686;2022-08-19T00:41:47;2.57;;;2.37;;
13067;SDS011;6600;51.362;6.686;2022-08-19T00:44:16;6.27;;;2.70;;
13067;SDS011;6600;51.362;6.686;2022-08-19T00:46:47;3.17;;;2.43;;
13067;SDS011;6600;51.362;6.686;2022-08-19T00:49:16;5.00;;;3.03;;
13067;SDS011;6600;51.362;6.686;2022-08-19T00:51:53;5.40;;;4.40;;
13067;SDS011;6600;51.362;6.686;2022-08-19T00:54:27;4.53;;;3.43;;
13067;SDS011;6600;51.362;6.686;2022-08-19T00:56:53;5.53;;;3.30;;
13067;SDS011;6600;51.362;6.686;2022-08-19T00:59:19;5.00;;;3.87;;
13067;SDS011;6600;51.362;6.686;2022-08-19T01:01:45;4.37;;;3.87;;
13067;SDS011;6600;51.362;6.686;2022-08-19T01:04:12;4.60;;;3.80;;
13067;SDS011;6600;51.362;6.686;2022-08-19T01:06:38;6.00;;;4.03;;
13067;SDS011;6600;51.362;6.686;2022-08-19T01:09:06;6.10;;;4.83;;
13067;SDS011;6600;51.362;6.686;2022-08-19T01:11:33;4.17;;;3.47;;
13067;SDS011;6600;51.362;6.686;2022-08-19T01:14:03;6.17;;;3.97;;
13067;SDS011;6600;51.362;6.686;2022-08-19T01:16:29;5.60;;;4.10;;
13067;SDS011;6600;51.362;6.686;2022-08-19T01:18:55;4.20;;;3.77;;
13067;SDS011;6600;51.362;6.686;2022-08-19T01:21:40;6.67;;;4.40;;
13067;SDS011;6600;51.362;6.686;2022-08-19T01:24:10;4.97;;;3.50;;
13067;SDS011;6600;51.362;6.686;2022-08-19T01:26:40;4.33;;;3.37;;
13067;SDS011;6600;51.362;6.686;2022-08-19T01:29:07;3.90;;;3.50;;
13067;SDS011;6600;51.362;6.686;2022-08-19T01:31:33;3.73;;;3.40;;
13067;SDS011;6600;51.362;6.686;2022-08-19T01:33:59;5.10;;;3.47;;
13067;SDS011;6600;51.362;6.686;2022-08-19T01:36:30;5.57;;;4.40;;
13067;SDS011;6600;51.362;6.686;2022-08-19T01:39:07;6.73;;;4.27;;
13067;SDS011;6600;51.362;6.686;2022-08-19T01:41:35;5.80;;;3.83;;
13067;SDS011;6600;51.362;6.686;2022-08-19T01:44:01;4.17;;;3.50;;
13067;SDS011;6600;51.362;6.686;2022-08-19T01:46:30;4.63;;;3.50;;
13067;SDS011;6600;51.362;6.686;2022-08-19T01:48:56;4.10;;;3.43;;
13067;SDS011;6600;51.362;6.686;2022-08-19T01:51:22;4.57;;;3.73;;
13067;SDS011;6600;51.362;6.686;2022-08-19T01:53:48;4.77;;;3.67;;
13067;SDS011;6600;51.362;6.686;2022-08-19T01:56:15;4.47;;;3.77;;
13067;SDS011;6600;51.362;6.686;2022-08-19T01:58:41;6.73;;;3.90;;
13067;SDS011;6600;51.362;6.686;2022-08-19T02:01:16;4.83;;;3.80;;
13067;SDS011;6600;51.362;6.686;2022-08-19T02:03:42;4.30;;;3.27;;
13067;SDS011;6600;51.362;6.686;2022-08-19T02:06:08;4.63;;;3.47;;
13067;SDS011;6600;51.362;6.686;2022-08-19T02:08:34;4.90;;;3.80;;
13067;SDS011;6600;51.362;6.686;2022-08-19T02:11:02;6.20;;;4.17;;
13067;SDS011;6600;51.362;6.686;2022-08-19T02:13:27;4.10;;;3.67;;
13067;SDS011;6600;51.362;6.686;2022-08-19T02:15:53;4.97;;;3.60;;
13067;SDS011;6600;51.362;6.686;2022-08-19T02:18:18;4.17;;;3.47;;
13067;SDS011;6600;51.362;6.686;2022-08-19T02:20:44;4.20;;;3.53;;
13067;SDS011;6600;51.362;6.686;2022-08-19T02:23:11;4.50;;;3.83;;
13067;SDS011;6600;51.362;6.686;2022-08-19T02:25:38;5.53;;;4.20;;
13067;SDS011;6600;51.362;6.686;2022-08-19T02:28:04;5.07;;;3.87;;
13067;SDS011;6600;51.362;6.686;2022-08-19T02:30:30;3.87;;;3.50;;
13067;SDS011;6600;51.362;6.686;2022-08-19T02:32:55;4.47;;;3.80;;
13067;SDS011;6600;51.362;6.686;2022-08-19T02:35:21;5.37;;;4.50;;
13067;SDS011;6600;51.362;6.686;2022-08-19T02:37:46;3.93;;;3.50;;
13067;SDS011;6600;51.362;6.686;2022-08-19T02:40:31;5.83;;;3.73;;
13067;SDS011;6600;51.362;6.686;2022-08-19T02:43:00;5.53;;;4.03;;
13067;SDS011;6600;51.362;6.686;2022-08-19T02:45:34;3.73;;;3.23;;
13067;SDS011;6600;51.362;6.686;2022-08-19T02:48:01;4.80;;;3.57;;
13067;SDS011;6600;51.362;6.686;2022-08-19T02:50:27;7.27;;;4.37;;
13067;SDS011;6600;51.362;6.686;2022-08-19T02:52:52;6.63;;;4.53;;
13067;SDS011;6600;51.362;6.686;2022-08-19T02:55:18;5.53;;;4.70;;
13067;SDS011;6600;51.362;6.686;2022-08-19T02:57:43;5.47;;;4.33;;
13067;SDS011;6600;51.362;6.686;2022-08-19T03:00:09;7.10;;;4.93;;
13067;SDS011;6600;51.362;6.686;2022-08-19T03:02:38;7.10;;;4.77;;
13067;SDS011;6600;51.362;6.686;2022-08-19T03:05:05;5.77;;;4.70;;
13067;SDS011;6600;51.362;6.686;2022-08-19T03:07:31;6.77;;;4.50;;
13067;SDS011;6600;51.362;6.686;2022-08-19T03:09:57;6.80;;;4.67;;
13067;SDS011;6600;51.362;6.686;2022-08-19T03:12:22;6.57;;;4.53;;
13067;SDS011;6600;51.362;6.686;2022-08-19T03:14:47;7.47;;;4.90;;
13067;SDS011;6600;51.362;6.686;2022-08-19T03:17:13;6.37;;;4.80;;
13067;SDS011;6600;51.362;6.686;2022-08-19T03:19:39;7.70;;;5.03;;
13067;SDS011;6600;51.362;6.686;2022-08-19T03:22:04;4.63;;;3.67;;
13067;SDS011;6600;51.362;6.686;2022-08-19T03:24:30;7.17;;;4.20;;
13067;SDS011;6600;51.362;6.686;2022-08-19T03:26:56;6.40;;;4.97;;
13067;SDS011;6600;51.362;6.686;2022-08-19T03:29:25;6.10;;;4.40;;
13067;SDS011;6600;51.362;6.686;2022-08-19T03:31:56;7.17;;;5.30;;
13067;SDS011;6600;51.362;6.686;2022-08-19T03:34:28;8.10;;;5.33;;
13067;SDS011;6600;51.362;6.686;2022-08-19T03:36:55;6.10;;;4.50;;
13067;SDS011;6600;51.362;6.686;2022-08-19T03:39:23;6.33;;;4.87;;
13067;SDS011;6600;51.362;6.686;2022-08-19T03:41:50;7.27;;;4.90;;
13067;SDS011;6600;51.362;6.686;2022-08-19T03:44:22;9.80;;;5.50;;
13067;SDS011;6600;51.362;6.686;2022-08-19T03:46:48;9.00;;;5.13;;
13067;SDS011;6600;51.362;6.686;2022-08-19T03:49:16;8.87;;;5.73;;
13067;SDS011;6600;51.362;6.686;2022-08-19T03:51:42;8.93;;;5.90;;
13067;SDS011;6600;51.362;6.686;2022-08-19T03:54:09;9.73;;;5.90;;
13067;SDS011;6600;51.362;6.686;2022-08-19T03:56:37;11.20;;;6.83;;
13067;SDS011;6600;51.362;6.686;2022-08-19T03:59:05;11.23;;;6.63;;
13067;SDS011;6600;51.362;6.686;2022-08-19T04:01:34;10.87;;;6.93;;
13067;SDS011;6600;51.362;6.686;2022-08-19T04:04:00;10.57;;;7.13;;
13067;SDS011;6600;51.362;6.686;2022-08-19T04:06:27;11.53;;;7.03;;
13067;SDS011;6600;51.362;6.686;2022-08-19T04:08:55;12.67;;;8.53;;
13067;SDS011;6600;51.362;6.686;2022-08-19T04:11:23;15.77;;;9.80;;
13067;SDS011;6600;51.362;6.686;2022-08-19T04:13:52;16.20;;;9.33;;
13067;SDS011;6600;51.362;6.686;2022-08-19T04:16:19;14.77;;;9.10;;
13067;SDS011;6600;51.362;6.686;2022-08-19T04:18:46;15.30;;;9.10;;
13067;SDS011;6600;51.362;6.686;2022-08-19T04:21:17;13.67;;;8.50;;
13067;SDS011;6600;51.362;6.686;2022-08-19T04:23:44;12.87;;;7.90;;
13067;SDS011;6600;51.362;6.686;2022-08-19T04:26:13;14.90;;;9.10;;
13067;SDS011;6600;51.362;6.686;2022-08-19T04:28:41;12.00;;;8.17;;
13067;SDS011;6600;51.362;6.686;2022-08-19T04:31:11;13.23;;;8.63;;
13067;SDS011;6600;51.362;6.686;2022-08-19T04:33:38;12.67;;;7.70;;
13067;SDS011;6600;51.362;6.686;2022-08-19T04:36:04;14.20;;;8.03;;
13067;SDS011;6600;51.362;6.686;2022-08-19T04:38:29;13.07;;;8.30;;
13067;SDS011;6600;51.362;6.686;2022-08-19T04:40:54;12.17;;;7.60;;
13067;SDS011;6600;51.362;6.686;2022-08-19T04:43:38;13.17;;;7.77;;
13067;SDS011;6600;51.362;6.686;2022-08-19T04:46:07;12.40;;;7.37;;
13067;SDS011;6600;51.362;6.686;2022-08-19T04:48:35;13.40;;;7.77;;
13067;SDS011;6600;51.362;6.686;2022-08-19T04:51:01;13.07;;;7.37;;
13067;SDS011;6600;51.362;6.686;2022-08-19T04:53:32;11.53;;;7.40;;
13067;SDS011;6600;51.362;6.686;2022-08-19T04:56:03;13.33;;;8.47;;
13067;SDS011;6600;51.362;6.686;2022-08-19T04:58:32;14.77;;;9.53;;
13067;SDS011;6600;51.362;6.686;2022-08-19T05:00:57;17.03;;;10.93;;
13067;SDS011;6600;51.362;6.686;2022-08-19T05:03:25;19.20;;;12.03;;
13067;SDS011;6600;51.362;6.686;2022-08-19T05:05:50;20.00;;;10.73;;
13067;SDS011;6600;51.362;6.686;2022-08-19T05:08:18;19.50;;;11.57;;
13067;SDS011;6600;51.362;6.686;2022-08-19T05:10:50;20.90;;;12.67;;
13067;SDS011;6600;51.362;6.686;2022-08-19T05:13:17;19.10;;;12.50;;
13067;SDS011;6600;51.362;6.686;2022-08-19T05:15:44;23.57;;;13.30;;
13067;SDS011;6600;51.362;6.686;2022-08-19T05:18:19;21.17;;;13.03;;
13067;SDS011;6600;51.362;6.686;2022-08-19T05:21:07;21.50;;;12.03;;
13067;SDS011;6600;51.362;6.686;2022-08-19T05:23:53;19.33;;;11.83;;
13067;SDS011;6600;51.362;6.686;2022-08-19T05:26:18;20.27;;;12.50;;
13067;SDS011;6600;51.362;6.686;2022-08-19T05:28:44;20.20;;;11.37;;
13067;SDS011;6600;51.362;6.686;2022-08-19T05:31:09;24.13;;;14.23;;
13067;SDS011;6600;51.362;6.686;2022-08-19T05:33:34;20.07;;;12.43;;
13067;SDS011;6600;51.362;6.686;2022-08-19T05:36:00;23.77;;;12.60;;
13067;SDS011;6600;51.362;6.686;2022-08-19T05:38:26;23.97;;;14.97;;
13067;SDS011;6600;51.362;6.686;2022-08-19T05:40:52;27.40;;;14.93;;
13067;SDS011;6600;51.362;6.686;2022-08-19T05:43:17;23.40;;;14.37;;
13067;SDS011;6600;51.362;6.686;2022-08-19T05:45:43;25.67;;;15.33;;
13067;SDS011;6600;51.362;6.686;2022-08-19T05:48:10;21.93;;;13.93;;
13067;SDS011;6600;51.362;6.686;2022-08-19T05:50:36;23.93;;;13.90;;
13067;SDS011;6600;51.362;6.686;2022-08-19T05:53:02;22.10;;;12.50;;
13067;SDS011;6600;51.362;6.686;2022-08-19T05:55:28;23.63;;;13.93;;
13067;SDS011;6600;51.362;6.686;2022-08-19T05:57:54;25.83;;;14.37;;
13067;SDS011;6600;51.362;6.686;2022-08-19T06:00:19;25.23;;;14.13;;
13067;SDS011;6600;51.362;6.686;2022-08-19T06:02:44;22.20;;;13.87;;
13067;SDS011;6600;51.362;6.686;2022-08-19T06:05:10;25.77;;;14.30;;
13067;SDS011;6600;51.362;6.686;2022-08-19T06:07:36;24.27;;;13.60;;
13067;SDS011;6600;51.362;6.686;2022-08-19T06:10:04;27.43;;;14.60;;
13067;SDS011;6600;51.362;6.686;2022-08-19T06:12:31;24.23;;;13.03;;
13067;SDS011;6600;51.362;6.686;2022-08-19T06:14:59;19.60;;;12.40;;
13067;SDS011;6600;51.362;6.686;2022-08-19T06:17:32;24.73;;;12.27;;
13067;SDS011;6600;51.362;6.686;2022-08-19T06:19:59;18.20;;;11.57;;
13067;SDS011;6600;51.362;6.686;2022-08-19T06:22:25;19.43;;;12.40;;
13067;SDS011;6600;51.362;6.686;2022-08-19T06:24:52;21.90;;;13.10;;
13067;SDS011;6600;51.362;6.686;2022-08-19T06:27:19;21.37;;;12.83;;
13067;SDS011;6600;51.362;6.686;2022-08-19T06:29:45;22.47;;;13.17;;
13067;SDS011;6600;51.362;6.686;2022-08-19T06:32:11;19.23;;;12.13;;
13067;SDS011;6600;51.362;6.686;2022-08-19T06:34:39;22.37;;;13.73;;
13067;SDS011;6600;51.362;6.686;2022-08-19T06:37:06;20.37;;;12.47;;
13067;SDS011;6600;51.362;6.686;2022-08-19T06:39:32;20.30;;;12.53;;
13067;SDS011;6600;51.362;6.686;2022-08-19T06:42:00;18.37;;;11.70;;
13067;SDS011;6600;51.362;6.686;2022-08-19T06:44:29;21.07;;;11.80;;
13067;SDS011;6600;51.362;6.686;2022-08-19T06:47:00;18.07;;;11.10;;
13067;SDS011;6600;51.362;6.686;2022-08-19T06:49:27;20.07;;;11.70;;
13067;SDS011;6600;51.362;6.686;2022-08-19T06:51:56;18.70;;;10.93;;
13067;SDS011;6600;51.362;6.686;2022-08-19T06:54:22;24.47;;;12.53;;
13067;SDS011;6600;51.362;6.686;2022-08-19T06:56:48;17.47;;;10.77;;
13067;SDS011;6600;51.362;6.686;2022-08-19T06:59:17;17.67;;;10.10;;
13067;SDS011;6600;51.362;6.686;2022-08-19T07:01:51;15.50;;;9.63;;
13067;SDS011;6600;51.362;6.686;2022-08-19T07:04:19;13.37;;;9.13;;
13067;SDS011;6600;51.362;6.686;2022-08-19T07:06:47;21.67;;;10.10;;
13067;SDS011;6600;51.362;6.686;2022-08-19T07:09:15;15.57;;;9.13;;
13067;SDS011;6600;51.362;6.686;2022-08-19T07:11:46;14.27;;;8.77;;
13067;SDS011;6600;51.362;6.686;2022-08-19T07:14:14;14.63;;;8.83;;
13067;SDS011;6600;51.362;6.686;2022-08-19T07:16:43;15.53;;;8.83;;
13067;SDS011;6600;51.362;6.686;2022-08-19T07:19:10;17.23;;;8.07;;
13067;SDS011;6600;51.362;6.686;2022-08-19T07:21:36;14.27;;;8.57;;
13067;SDS011;6600;51.362;6.686;2022-08-19T07:24:02;15.43;;;9.60;;
13067;SDS011;6600;51.362;6.686;2022-08-19T07:26:29;11.80;;;7.83;;
13067;SDS011;6600;51.362;6.686;2022-08-19T07:28:57;12.97;;;7.90;;
13067;SDS011;6600;51.362;6.686;2022-08-19T07:31:25;14.17;;;8.47;;
13067;SDS011;6600;51.362;6.686;2022-08-19T07:33:52;11.70;;;7.37;;
13067;SDS011;6600;51.362;6.686;2022-08-19T07:36:27;8.47;;;6.03;;
13067;SDS011;6600;51.362;6.686;2022-08-19T07:38:56;11.73;;;6.83;;
13067;SDS011;6600;51.362;6.686;2022-08-19T07:41:22;11.30;;;6.63;;
13067;SDS011;6600;51.362;6.686;2022-08-19T07:43:49;11.73;;;5.87;;
13067;SDS011;6600;51.362;6.686;2022-08-19T07:46:16;11.93;;;8.27;;
13067;SDS011;6600;51.362;6.686;2022-08-19T07:48:43;13.83;;;8.40;;
13067;SDS011;6600;51.362;6.686;2022-08-19T07:51:13;12.60;;;8.10;;
13067;SDS011;6600;51.362;6.686;2022-08-19T07:53:40;11.17;;;6.93;;
13067;SDS011;6600;51.362;6.686;2022-08-19T07:56:06;12.77;;;7.63;;
13067;SDS011;6600;51.362;6.686;2022-08-19T07:58:33;14.40;;;8.00;;
13067;SDS011;6600;51.362;6.686;2022-08-19T08:01:02;13.97;;;8.37;;
13067;SDS011;6600;51.362;6.686;2022-08-19T08:03:29;13.13;;;8.23;;
13067;SDS011;6600;51.362;6.686;2022-08-19T08:06:13;13.97;;;8.57;;
13067;SDS011;6600;51.362;6.686;2022-08-19T08:09:00;12.67;;;8.13;;
13067;SDS011;6600;51.362;6.686;2022-08-19T08:11:40;15.77;;;8.33;;
13067;SDS011;6600;51.362;6.686;2022-08-19T08:14:18;12.70;;;6.83;;
13067;SDS011;6600;51.362;6.686;2022-08-19T08:16:52;13.80;;;8.17;;
13067;SDS011;6600;51.362;6.686;2022-08-19T08:19:19;14.43;;;8.67;;
13067;SDS011;6600;51.362;6.686;2022-08-19T08:21:46;14.33;;;8.87;;
13067;SDS011;6600;51.362;6.686;2022-08-19T08:24:12;14.83;;;9.30;;
13067;SDS011;6600;51.362;6.686;2022-08-19T08:26:38;16.70;;;10.10;;
13067;SDS011;6600;51.362;6.686;2022-08-19T08:29:04;17.97;;;10.30;;
13067;SDS011;6600;51.362;6.686;2022-08-19T08:31:32;22.03;;;11.50;;
13067;SDS011;6600;51.362;6.686;2022-08-19T08:33:59;15.90;;;9.43;;
13067;SDS011;6600;51.362;6.686;2022-08-19T08:36:24;17.73;;;10.40;;
13067;SDS011;6600;51.362;6.686;2022-08-19T08:38:50;15.93;;;8.90;;
13067;SDS011;6600;51.362;6.686;2022-08-19T08:41:34;15.90;;;9.30;;
13067;SDS011;6600;51.362;6.686;2022-08-19T08:44:00;17.47;;;8.77;;
13067;SDS011;6600;51.362;6.686;2022-08-19T08:51:51;12.17;;;7.73;;
13067;SDS011;6600;51.362;6.686;2022-08-19T08:54:25;15.70;;;9.03;;
13067;SDS011;6600;51.362;6.686;2022-08-19T08:56:55;14.40;;;8.73;;
13067;SDS011;6600;51.362;6.686;2022-08-19T08:59:23;14.80;;;8.63;;
13067;SDS011;6600;51.362;6.686;2022-08-19T09:01:56;18.17;;;10.17;;
13067;SDS011;6600;51.362;6.686;2022-08-19T09:04:21;15.57;;;9.63;;
13067;SDS011;6600;51.362;6.686;2022-08-19T09:09:38;16.57;;;9.73;;
13067;SDS011;6600;51.362;6.686;2022-08-19T09:17:07;12.07;;;8.50;;
13067;SDS011;6600;51.362;6.686;2022-08-19T09:19:34;11.07;;;7.33;;
13067;SDS011;6600;51.362;6.686;2022-08-19T09:22:14;11.23;;;7.00;;
13067;SDS011;6600;51.362;6.686;2022-08-19T09:24:39;11.17;;;7.03;;
13067;SDS011;6600;51.362;6.686;2022-08-19T09:27:05;12.90;;;6.90;;
13067;SDS011;6600;51.362;6.686;2022-08-19T09:29:31;10.93;;;6.37;;
13067;SDS011;6600;51.362;6.686;2022-08-19T09:31:56;8.70;;;6.70;;
13067;SDS011;6600;51.362;6.686;2022-08-19T09:34:21;12.50;;;7.80;;
13067;SDS011;6600;51.362;6.686;2022-08-19T09:36:47;14.67;;;8.00;;
13067;SDS011;6600;51.362;6.686;2022-08-19T09:39:14;13.10;;;7.30;;
13067;SDS011;6600;51.362;6.686;2022-08-19T09:41:39;9.87;;;6.23;;
13067;SDS011;6600;51.362;6.686;2022-08-19T09:44:05;8.30;;;5.73;;
13067;SDS011;6600;51.362;6.686;2022-08-19T09:46:30;9.93;;;6.57;;
13067;SDS011;6600;51.362;6.686;2022-08-19T09:48:57;8.03;;;6.00;;
13067;SDS011;6600;51.362;6.686;2022-08-19T09:51:24;8.87;;;6.03;;
13067;SDS011;6600;51.362;6.686;2022-08-19T09:53:52;8.30;;;6.10;;
13067;SDS011;6600;51.362;6.686;2022-08-19T09:56:22;10.20;;;6.40;;
13067;SDS011;6600;51.362;6.686;2022-08-19T09:58:47;9.70;;;5.97;;
13067;SDS011;6600;51.362;6.686;2022-08-19T10:01:18;10.73;;;5.87;;
13067;SDS011;6600;51.362;6.686;2022-08-19T10:03:47;8.43;;;5.90;;
13067;SDS011;6600;51.362;6.686;2022-08-19T10:06:14;7.57;;;5.40;;
13067;SDS011;6600;51.362;6.686;2022-08-19T10:08:40;7.70;;;5.67;;
13067;SDS011;6600;51.362;6.686;2022-08-19T10:11:06;6.47;;;4.23;;
13067;SDS011;6600;51.362;6.686;2022-08-19T10:13:32;6.63;;;5.20;;
13067;SDS011;6600;51.362;6.686;2022-08-19T10:16:05;5.67;;;4.17;;
13067;SDS011;6600;51.362;6.686;2022-08-19T10:18:32;7.13;;;5.10;;
13067;SDS011;6600;51.362;6.686;2022-08-19T10:21:03;9.07;;;5.13;;
13067;SDS011;6600;51.362;6.686;2022-08-19T10:23:34;8.30;;;4.77;;
13067;SDS011;6600;51.362;6.686;2022-08-19T10:26:05;7.87;;;4.77;;
13067;SDS011;6600;51.362;6.686;2022-08-19T10:28:32;6.40;;;4.63;;
13067;SDS011;6600;51.362;6.686;2022-08-19T10:31:02;8.23;;;5.57;;
13067;SDS011;6600;51.362;6.686;2022-08-19T10:33:32;5.90;;;4.70;;
13067;SDS011;6600;51.362;6.686;2022-08-19T10:35:59;7.40;;;5.33;;
13067;SDS011;6600;51.362;6.686;2022-08-19T10:38:33;6.37;;;4.73;;
13067;SDS011;6600;51.362;6.686;2022-08-19T10:41:06;6.63;;;4.90;;
13067;SDS011;6600;51.362;6.686;2022-08-19T10:43:39;6.60;;;4.93;;
13067;SDS011;6600;51.362;6.686;2022-08-19T10:46:06;5.73;;;4.53;;
13067;SDS011;6600;51.362;6.686;2022-08-19T10:48:34;6.70;;;4.83;;
13067;SDS011;6600;51.362;6.686;2022-08-19T10:51:00;7.50;;;4.30;;
13067;SDS011;6600;51.362;6.686;2022-08-19T10:53:44;6.20;;;4.10;;
13067;SDS011;6600;51.362;6.686;2022-08-19T10:56:10;6.70;;;4.80;;
13067;SDS011;6600;51.362;6.686;2022-08-19T10:58:54;6.53;;;4.67;;
13067;SDS011;6600;51.362;6.686;2022-08-19T11:01:22;6.33;;;4.93;;
13067;SDS011;6600;51.362;6.686;2022-08-19T11:03:47;5.83;;;4.00;;
13067;SDS011;6600;51.362;6.686;2022-08-19T11:06:12;5.73;;;3.70;;
13067;SDS011;6600;51.362;6.686;2022-08-19T11:08:38;5.57;;;4.13;;
13067;SDS011;6600;51.362;6.686;2022-08-19T11:11:04;5.10;;;4.40;;
13067;SDS011;6600;51.362;6.686;2022-08-19T11:13:33;6.17;;;4.30;;
13067;SDS011;6600;51.362;6.686;2022-08-19T11:16:03;4.23;;;3.50;;
13067;SDS011;6600;51.362;6.686;2022-08-19T11:18:36;4.43;;;3.67;;
13067;SDS011;6600;51.362;6.686;2022-08-19T11:21:07;5.60;;;3.93;;
13067;SDS011;6600;51.362;6.686;2022-08-19T11:23:33;4.37;;;3.43;;
13067;SDS011;6600;51.362;6.686;2022-08-19T11:25:58;3.67;;;3.27;;
13067;SDS011;6600;51.362;6.686;2022-08-19T11:28:26;5.00;;;3.77;;
13067;SDS011;6600;51.362;6.686;2022-08-19T11:30:51;5.10;;;3.33;;
13067;SDS011;6600;51.362;6.686;2022-08-19T11:33:16;4.67;;;3.40;;
13067;SDS011;6600;51.362;6.686;2022-08-19T11:35:42;4.77;;;3.83;;
13067;SDS011;6600;51.362;6.686;2022-08-19T11:38:07;6.17;;;3.27;;
13067;SDS011;6600;51.362;6.686;2022-08-19T11:40:32;3.00;;;2.70;;
13067;SDS011;6600;51.362;6.686;2022-08-19T11:42:58;3.70;;;3.20;;
13067;SDS011;6600;51.362;6.686;2022-08-19T11:45:24;2.53;;;2.33;;
13067;SDS011;6600;51.362;6.686;2022-08-19T11:47:52;4.77;;;3.53;;
13067;SDS011;6600;51.362;6.686;2022-08-19T11:50:17;3.93;;;3.30;;
13067;SDS011;6600;51.362;6.686;2022-08-19T11:52:43;3.60;;;2.43;;
13067;SDS011;6600;51.362;6.686;2022-08-19T11:55:10;3.17;;;2.47;;
13067;SDS011;6600;51.362;6.686;2022-08-19T11:57:38;3.03;;;2.60;;
13067;SDS011;6600;51.362;6.686;2022-08-19T12:00:05;2.83;;;2.43;;
13067;SDS011;6600;51.362;6.686;2022-08-19T12:02:32;2.70;;;2.50;;
13067;SDS011;6600;51.362;6.686;2022-08-19T12:04:58;3.70;;;3.33;;
13067;SDS011;6600;51.362;6.686;2022-08-19T12:07:27;3.93;;;3.10;;
13067;SDS011;6600;51.362;6.686;2022-08-19T12:09:54;4.97;;;2.97;;
13067;SDS011;6600;51.362;6.686;2022-08-19T12:12:19;2.43;;;2.13;;
13067;SDS011;6600;51.362;6.686;2022-08-19T12:14:44;2.43;;;2.23;;
13067;SDS011;6600;51.362;6.686;2022-08-19T12:17:11;2.77;;;2.50;;
13067;SDS011;6600;51.362;6.686;2022-08-19T12:19:38;2.60;;;2.40;;
13067;SDS011;6600;51.362;6.686;2022-08-19T12:22:04;3.57;;;2.80;;
13067;SDS011;6600;51.362;6.686;2022-08-19T12:24:31;3.10;;;2.10;;
13067;SDS011;6600;51.362;6.686;2022-08-19T12:26:57;2.93;;;2.50;;
13067;SDS011;6600;51.362;6.686;2022-08-19T12:29:23;2.80;;;2.20;;
13067;SDS011;6600;51.362;6.686;2022-08-19T12:31:54;2.57;;;2.27;;
13067;SDS011;6600;51.362;6.686;2022-08-19T12:34:25;2.17;;;1.97;;
13067;SDS011;6600;51.362;6.686;2022-08-19T12:36:51;3.20;;;2.63;;
13067;SDS011;6600;51.362;6.686;2022-08-19T12:39:16;4.33;;;2.80;;
13067;SDS011;6600;51.362;6.686;2022-08-19T12:41:42;4.07;;;2.80;;
13067;SDS011;6600;51.362;6.686;2022-08-19T12:44:07;3.50;;;2.87;;
13067;SDS011;6600;51.362;6.686;2022-08-19T12:46:33;2.47;;;1.87;;
13067;SDS011;6600;51.362;6.686;2022-08-19T12:48:58;2.90;;;2.60;;
13067;SDS011;6600;51.362;6.686;2022-08-19T12:51:24;3.67;;;2.17;;
13067;SDS011;6600;51.362;6.686;2022-08-19T12:53:51;2.10;;;1.90;;
13067;SDS011;6600;51.362;6.686;2022-08-19T12:56:17;1.67;;;1.50;;
13067;SDS011;6600;51.362;6.686;2022-08-19T12:58:43;1.97;;;1.87;;
13067;SDS011;6600;51.362;6.686;2022-08-19T13:01:10;2.37;;;2.17;;
13067;SDS011;6600;51.362;6.686;2022-08-19T13:03:38;1.77;;;1.60;;
13067;SDS011;6600;51.362;6.686;2022-08-19T13:06:03;2.43;;;2.20;;
13067;SDS011;6600;51.362;6.686;2022-08-19T13:08:29;2.50;;;2.30;;
13067;SDS011;6600;51.362;6.686;2022-08-19T13:10:54;2.23;;;2.03;;
13067;SDS011;6600;51.362;6.686;2022-08-19T13:13:20;2.43;;;2.20;;
13067;SDS011;6600;51.362;6.686;2022-08-19T13:15:46;3.80;;;2.20;;
13067;SDS011;6600;51.362;6.686;2022-08-19T13:18:12;2.70;;;2.13;;
13067;SDS011;6600;51.362;6.686;2022-08-19T13:20:38;3.10;;;1.93;;
13067;SDS011;6600;51.362;6.686;2022-08-19T13:23:05;2.03;;;1.93;;
13067;SDS011;6600;51.362;6.686;2022-08-19T13:25:31;3.03;;;2.30;;
13067;SDS011;6600;51.362;6.686;2022-08-19T13:27:57;3.27;;;2.20;;
13067;SDS011;6600;51.362;6.686;2022-08-19T13:30:22;2.50;;;1.93;;
13067;SDS011;6600;51.362;6.686;2022-08-19T13:33:06;2.60;;;2.23;;
13067;SDS011;6600;51.362;6.686;2022-08-19T13:35:54;2.30;;;2.10;;
13067;SDS011;6600;51.362;6.686;2022-08-19T13:38:22;2.40;;;2.20;;
13067;SDS011;6600;51.362;6.686;2022-08-19T13:40:49;2.40;;;2.20;;
13067;SDS011;6600;51.362;6.686;2022-08-19T13:43:16;2.40;;;2.20;;
13067;SDS011;6600;51.362;6.686;2022-08-19T13:45:42;2.33;;;2.10;;
13067;SDS011;6600;51.362;6.686;2022-08-19T13:48:08;2.77;;;2.03;;
13067;SDS011;6600;51.362;6.686;2022-08-19T13:50:37;1.93;;;1.83;;
13067;SDS011;6600;51.362;6.686;2022-08-19T13:53:06;5.47;;;2.13;;
13067;SDS011;6600;51.362;6.686;2022-08-19T13:55:32;2.03;;;1.93;;
13067;SDS011;6600;51.362;6.686;2022-08-19T13:57:59;2.17;;;1.97;;
13067;SDS011;6600;51.362;6.686;2022-08-19T14:00:27;2.57;;;2.37;;
13067;SDS011;6600;51.362;6.686;2022-08-19T14:02:55;3.93;;;2.73;;
13067;SDS011;6600;51.362;6.686;2022-08-19T14:05:21;3.00;;;2.33;;
13067;SDS011;6600;51.362;6.686;2022-08-19T14:07:48;2.37;;;2.17;;
13067;SDS011;6600;51.362;6.686;2022-08-19T14:10:15;4.30;;;2.53;;
13067;SDS011;6600;51.362;6.686;2022-08-19T14:12:41;2.60;;;2.40;;
13067;SDS011;6600;51.362;6.686;2022-08-19T14:15:07;2.60;;;2.40;;
13067;SDS011;6600;51.362;6.686;2022-08-19T14:17:34;3.60;;;2.60;;
13067;SDS011;6600;51.362;6.686;2022-08-19T14:20:00;2.80;;;2.60;;
13067;SDS011;6600;51.362;6.686;2022-08-19T14:22:33;2.47;;;2.27;;
13067;SDS011;6600;51.362;6.686;2022-08-19T14:25:04;2.90;;;2.37;;
13067;SDS011;6600;51.362;6.686;2022-08-19T14:27:38;4.30;;;2.93;;
13067;SDS011;6600;51.362;6.686;2022-08-19T14:30:05;2.43;;;2.23;;
13067;SDS011;6600;51.362;6.686;2022-08-19T14:32:32;2.40;;;1.80;;
13067;SDS011;6600;51.362;6.686;2022-08-19T14:34:57;2.43;;;1.83;;
13067;SDS011;6600;51.362;6.686;2022-08-19T14:37:23;2.80;;;1.67;;
13067;SDS011;6600;51.362;6.686;2022-08-19T14:39:48;2.63;;;1.80;;
13067;SDS011;6600;51.362;6.686;2022-08-19T14:42:14;2.00;;;1.87;;
13067;SDS011;6600;51.362;6.686;2022-08-19T14:44:41;1.60;;;1.50;;
13067;SDS011;6600;51.362;6.686;2022-08-19T14:47:07;2.40;;;2.00;;
13067;SDS011;6600;51.362;6.686;2022-08-19T14:49:33;2.87;;;1.60;;
13067;SDS011;6600;51.362;6.686;2022-08-19T14:51:58;1.57;;;1.47;;
13067;SDS011;6600;51.362;6.686;2022-08-19T14:54:24;3.30;;;1.80;;
13067;SDS011;6600;51.362;6.686;2022-08-19T14:56:49;2.10;;;1.50;;
13067;SDS011;6600;51.362;6.686;2022-08-19T14:59:15;2.23;;;2.03;;
13067;SDS011;6600;51.362;6.686;2022-08-19T15:01:40;2.60;;;1.70;;
13067;SDS011;6600;51.362;6.686;2022-08-19T15:04:06;2.80;;;2.20;;
13067;SDS011;6600;51.362;6.686;2022-08-19T15:06:31;1.93;;;1.70;;
13067;SDS011;6600;51.362;6.686;2022-08-19T15:08:57;1.83;;;1.73;;
13067;SDS011;6600;51.362;6.686;2022-08-19T15:11:25;1.70;;;1.60;;